createdAt,value
2018-07-01T00:01:27.590Z,33.12
2018-07-01T00:03:55.867Z,33.61
2018-07-01T00:06:24.090Z,33.61
2018-07-01T00:08:52.615Z,33.79
2018-07-01T00:11:22.003Z,33.43
2018-07-01T00:13:50.404Z,34.13
2018-07-01T00:16:18.751Z,33.69
2018-07-01T00:18:47.254Z,33.67
2018-07-01T00:21:15.719Z,34.22
2018-07-01T00:23:44.135Z,33.82
2018-07-01T00:26:12.533Z,34.10
2018-07-01T00:28:40.710Z,34.55
2018-07-01T00:31:08.985Z,34.39
2018-07-01T00:33:37.245Z,35.30
2018-07-01T00:36:06.516Z,34.13
2018-07-01T00:38:34.783Z,34.79
2018-07-01T00:41:03.128Z,34.63
2018-07-01T00:43:31.403Z,34.94
2018-07-01T00:45:59.699Z,34.60
2018-07-01T00:48:27.852Z,35.09
2018-07-01T00:50:56.355Z,35.38
2018-07-01T00:53:24.532Z,35.12
2018-07-01T00:55:52.962Z,35.43
2018-07-01T00:58:21.282Z,34.60
2018-07-01T01:00:49.662Z,34.83
2018-07-01T01:03:17.757Z,34.81
2018-07-01T01:05:46.102Z,34.85
2018-07-01T01:08:14.274Z,35.19
2018-07-01T01:10:42.446Z,35.60
2018-07-01T01:13:11.189Z,36.01
2018-07-01T01:15:39.238Z,36.09
2018-07-01T01:18:07.631Z,36.03
2018-07-01T01:20:35.909Z,36.64
2018-07-01T01:23:04.185Z,35.43
2018-07-01T01:25:32.438Z,36.53
2018-07-01T01:28:00.683Z,36.80
2018-07-01T01:30:28.936Z,36.40
2018-07-01T01:32:57.109Z,36.16
2018-07-01T01:35:25.462Z,36.34
2018-07-01T01:37:53.758Z,36.57
2018-07-01T01:40:24.825Z,36.90
2018-07-01T01:43:00.199Z,36.16
2018-07-01T01:45:36.357Z,36.87
2018-07-01T01:48:28.617Z,36.95
2018-07-01T01:51:02.322Z,36.63
2018-07-01T01:53:44.805Z,37.33
2018-07-01T01:56:22.809Z,37.13
2018-07-01T01:58:55.586Z,36.74
2018-07-01T02:01:30.902Z,37.47
2018-07-01T02:04:04.464Z,37.58
2018-07-01T02:06:38.655Z,37.08
2018-07-01T02:09:13.853Z,36.51
2018-07-01T02:11:44.660Z,37.34
2018-07-01T02:14:17.838Z,37.43
2018-07-01T02:16:49.256Z,37.62
2018-07-01T02:19:17.669Z,37.76
2018-07-01T02:21:46.013Z,38.78
2018-07-01T02:24:19.076Z,38.62
2018-07-01T02:26:47.253Z,37.85
2018-07-01T02:29:16.006Z,39.36
2018-07-01T02:31:44.251Z,38.52
2018-07-01T02:34:12.396Z,38.10
2018-07-01T02:36:40.544Z,38.28
2018-07-01T02:39:09.676Z,38.81
2018-07-01T02:41:38.213Z,39.02
2018-07-01T02:44:06.423Z,39.28
2018-07-01T02:46:34.594Z,39.31
2018-07-01T02:49:03.202Z,39.09
2018-07-01T02:51:31.306Z,39.76
2018-07-01T02:53:59.492Z,39.55
2018-07-01T02:56:27.649Z,39.39
2018-07-01T02:58:55.784Z,39.73
2018-07-01T03:01:24.003Z,40.28
2018-07-01T03:03:52.293Z,39.42
2018-07-01T03:06:20.842Z,39.49
2018-07-01T03:08:48.973Z,39.92
2018-07-01T03:11:17.113Z,39.62
2018-07-01T03:13:45.201Z,40.03
2018-07-01T03:16:13.357Z,39.76
2018-07-01T03:18:41.576Z,40.14
2018-07-01T03:21:09.872Z,40.45
2018-07-01T03:23:38.079Z,39.91
2018-07-01T03:26:06.254Z,39.94
2018-07-01T03:28:34.455Z,40.79
2018-07-01T03:31:02.543Z,40.08
2018-07-01T03:33:30.821Z,39.96
2018-07-01T03:35:58.942Z,40.49
2018-07-01T03:38:27.061Z,40.42
2018-07-01T03:40:55.200Z,40.20
2018-07-01T03:43:24.050Z,40.76
2018-07-01T03:45:52.253Z,40.64
2018-07-01T03:48:20.483Z,40.70
2018-07-01T03:50:48.646Z,40.62
2018-07-01T03:53:16.924Z,40.74
2018-07-01T03:55:45.121Z,40.73
2018-07-01T03:58:13.355Z,41.54
2018-07-01T04:00:41.544Z,41.52
2018-07-01T04:03:09.739Z,41.22
2018-07-01T04:05:38.101Z,41.00
2018-07-01T04:08:06.275Z,40.74
2018-07-01T04:10:34.485Z,41.44
2018-07-01T04:13:02.649Z,41.50
2018-07-01T04:15:30.834Z,40.83
2018-07-01T04:17:58.935Z,41.40
2018-07-01T04:20:27.609Z,40.87
2018-07-01T04:22:55.725Z,41.16
2018-07-01T04:25:23.843Z,41.53
2018-07-01T04:27:52.191Z,41.64
2018-07-01T04:30:20.338Z,41.27
2018-07-01T04:32:48.423Z,41.87
2018-07-01T04:35:16.745Z,42.66
2018-07-01T04:37:45.038Z,42.18
2018-07-01T04:40:13.260Z,40.82
2018-07-01T04:42:41.518Z,41.34
2018-07-01T04:45:09.584Z,41.75
2018-07-01T04:47:37.857Z,41.36
2018-07-01T04:50:06.220Z,41.83
2018-07-01T04:52:34.365Z,41.95
2018-07-01T04:55:02.682Z,41.84
2018-07-01T04:57:30.866Z,42.26
2018-07-01T04:59:59.026Z,41.63
2018-07-01T05:02:27.565Z,42.27
2018-07-01T05:04:55.633Z,41.64
2018-07-01T05:07:23.826Z,41.85
2018-07-01T05:09:52.002Z,41.86
2018-07-01T05:12:20.122Z,41.72
2018-07-01T05:14:48.399Z,42.76
2018-07-01T05:17:16.693Z,41.98
2018-07-01T05:19:44.773Z,41.68
2018-07-01T05:22:12.926Z,41.15
2018-07-01T05:24:41.192Z,41.34
2018-07-01T05:27:09.393Z,40.93
2018-07-01T05:29:37.577Z,40.63
2018-07-01T05:32:05.810Z,40.75
2018-07-01T05:34:33.924Z,41.24
2018-07-01T05:37:02.035Z,40.89
2018-07-01T05:39:30.194Z,40.98
2018-07-01T05:41:58.341Z,40.38
2018-07-01T05:44:26.483Z,39.09
2018-07-01T05:46:54.625Z,39.11
2018-07-01T05:49:22.818Z,36.04
2018-07-01T05:51:50.925Z,34.11
2018-07-01T05:54:19.153Z,30.62
2018-07-01T05:56:47.390Z,30.04
2018-07-01T05:59:15.520Z,30.79
2018-07-01T06:01:43.766Z,31.17
2018-07-01T06:04:11.947Z,29.49
2018-07-01T06:06:40.107Z,29.93
2018-07-01T06:09:10.539Z,32.09
2018-07-01T06:11:38.973Z,27.93
2018-07-01T06:14:07.163Z,31.42
2018-07-01T06:16:35.852Z,28.36
2018-07-01T06:19:04.236Z,29.89
2018-07-01T06:21:32.354Z,30.99
2018-07-01T06:24:00.514Z,29.00
2018-07-01T06:26:28.709Z,29.42
2018-07-01T06:28:56.905Z,26.95
2018-07-01T06:31:25.006Z,27.45
2018-07-01T06:33:53.251Z,28.20
2018-07-01T06:36:21.554Z,29.24
2018-07-01T06:38:49.868Z,28.75
2018-07-01T06:41:18.039Z,31.29
2018-07-01T06:43:46.294Z,29.16
2018-07-01T06:46:14.471Z,31.16
2018-07-01T06:48:42.770Z,28.59
2018-07-01T06:51:10.971Z,28.78
2018-07-01T06:53:40.012Z,29.39
2018-07-01T06:56:08.201Z,31.01
2018-07-01T06:58:36.449Z,31.30
2018-07-01T07:01:04.803Z,29.84
2018-07-01T07:03:33.208Z,30.01
2018-07-01T07:06:01.364Z,29.72
2018-07-01T07:08:29.564Z,29.07
2018-07-01T07:10:57.808Z,29.71
2018-07-01T07:13:26.092Z,29.11
2018-07-01T07:15:54.385Z,30.87
2018-07-01T07:18:22.629Z,32.54
2018-07-01T07:20:50.952Z,31.64
2018-07-01T07:23:19.189Z,32.94
2018-07-01T07:25:47.441Z,31.94
2018-07-01T07:28:15.876Z,31.80
2018-07-01T07:30:44.234Z,31.87
2018-07-01T07:33:12.497Z,33.85
2018-07-01T07:35:41.210Z,34.76
2018-07-01T07:38:09.387Z,35.32
2018-07-01T07:40:37.689Z,35.04
2018-07-01T07:43:05.845Z,36.20
2018-07-01T07:45:34.057Z,35.81
2018-07-01T07:48:02.342Z,35.83
2018-07-01T07:50:30.664Z,35.79
2018-07-01T07:52:58.952Z,35.86
2018-07-01T07:55:27.325Z,35.17
2018-07-01T07:57:55.670Z,36.26
2018-07-01T08:00:24.070Z,35.32
2018-07-01T08:02:52.453Z,35.73
2018-07-01T08:05:20.697Z,35.24
2018-07-01T08:07:48.856Z,36.33
2018-07-01T08:10:17.274Z,35.76
2018-07-01T08:12:45.971Z,36.08
2018-07-01T08:15:14.311Z,35.50
2018-07-01T08:17:42.719Z,35.23
2018-07-01T08:20:10.987Z,34.76
2018-07-01T08:22:39.195Z,35.46
2018-07-01T08:25:07.494Z,35.42
2018-07-01T08:27:35.697Z,34.49
2018-07-01T08:30:04.522Z,34.91
2018-07-01T08:32:32.852Z,34.07
2018-07-01T08:35:01.025Z,34.51
2018-07-01T08:37:29.327Z,33.33
2018-07-01T08:39:57.835Z,34.14
2018-07-01T08:42:31.409Z,34.37
2018-07-01T08:45:00.770Z,34.06
2018-07-01T08:47:29.408Z,34.52
2018-07-01T08:49:57.877Z,33.30
2018-07-01T08:52:26.155Z,33.66
2018-07-01T08:54:54.346Z,32.85
2018-07-01T08:57:23.419Z,34.13
2018-07-01T08:59:51.795Z,33.55
2018-07-01T09:02:20.788Z,33.69
2018-07-01T09:04:49.546Z,32.83
2018-07-01T09:07:18.359Z,33.16
2018-07-01T09:09:47.166Z,32.82
2018-07-01T09:12:15.438Z,33.19
2018-07-01T09:14:43.726Z,33.13
2018-07-01T09:17:12.113Z,32.67
2018-07-01T09:19:40.250Z,32.75
2018-07-01T09:22:08.543Z,34.46
2018-07-01T09:24:36.794Z,34.15
2018-07-01T09:27:05.141Z,33.07
2018-07-01T09:29:33.448Z,32.47
2018-07-01T09:32:01.865Z,32.91
2018-07-01T09:34:30.195Z,31.68
2018-07-01T09:36:58.565Z,32.02
2018-07-01T09:39:26.734Z,31.25
2018-07-01T09:41:55.551Z,30.95
2018-07-01T09:44:23.932Z,32.01
2018-07-01T09:46:52.527Z,32.00
2018-07-01T09:49:20.762Z,31.57
2018-07-01T09:51:49.259Z,31.70
2018-07-01T09:54:17.480Z,32.34
2018-07-01T09:56:45.731Z,31.74
2018-07-01T09:59:13.984Z,31.90
2018-07-01T10:01:42.220Z,32.37
2018-07-01T10:04:10.496Z,30.98
2018-07-01T10:06:38.687Z,30.10
2018-07-01T10:09:09.435Z,31.32
2018-07-01T10:11:38.022Z,31.02
2018-07-01T10:14:07.414Z,31.67
2018-07-01T10:16:35.665Z,31.43
2018-07-01T10:19:04.155Z,31.53
2018-07-01T10:21:32.396Z,31.58
2018-07-01T10:24:00.612Z,32.29
2018-07-01T10:26:28.978Z,31.95
2018-07-01T10:29:16.973Z,31.23
2018-07-01T10:31:46.077Z,30.64
2018-07-01T10:34:15.548Z,32.01
2018-07-01T10:36:44.697Z,31.10
2018-07-01T10:39:15.718Z,30.34
2018-07-01T10:41:45.284Z,30.54
2018-07-01T10:44:14.086Z,31.39
2018-07-01T10:46:43.347Z,30.56
2018-07-01T10:49:11.849Z,30.18
2018-07-01T10:51:40.394Z,29.76
2018-07-01T10:54:08.716Z,29.99
2018-07-01T10:56:37.078Z,31.01
2018-07-01T10:59:05.655Z,30.69
2018-07-01T11:01:33.935Z,30.33
2018-07-01T11:04:02.490Z,30.80
2018-07-01T11:06:30.873Z,29.96
2018-07-01T11:08:59.461Z,28.89
2018-07-01T11:11:27.883Z,29.66
2018-07-01T11:13:56.081Z,29.87
2018-07-01T11:16:24.377Z,30.78
2018-07-01T11:18:52.656Z,29.76
2018-07-01T11:21:20.871Z,28.70
2018-07-01T11:23:53.440Z,29.06
2018-07-01T11:26:21.656Z,30.29
2018-07-01T11:28:49.958Z,30.89
2018-07-01T11:31:18.181Z,30.37
2018-07-01T11:33:46.654Z,30.03
2018-07-01T11:36:14.958Z,28.65
2018-07-01T11:38:43.265Z,29.77
2018-07-01T11:41:11.592Z,28.86
2018-07-01T11:43:39.801Z,28.84
2018-07-01T11:46:07.934Z,28.38
2018-07-01T11:48:36.070Z,29.50
2018-07-01T11:51:05.171Z,29.10
2018-07-01T11:53:33.513Z,29.53
2018-07-01T11:56:01.777Z,28.85
2018-07-01T11:58:30.055Z,28.79
2018-07-01T12:00:58.533Z,28.59
2018-07-01T12:03:26.854Z,28.91
2018-07-01T12:05:55.337Z,27.17
2018-07-01T12:08:23.623Z,27.66
2018-07-01T12:10:52.044Z,26.29
2018-07-01T12:13:20.232Z,27.38
2018-07-01T12:15:48.444Z,28.98
2018-07-01T12:18:16.737Z,28.22
2018-07-01T12:20:45.062Z,26.82
2018-07-01T12:23:13.505Z,27.82
2018-07-01T12:25:41.804Z,27.25
2018-07-01T12:28:09.932Z,26.56
2018-07-01T12:30:38.292Z,27.30
2018-07-01T12:33:07.146Z,27.63
2018-07-01T12:35:35.398Z,28.39
2018-07-01T12:38:04.484Z,27.75
2018-07-01T12:40:34.391Z,28.78
2018-07-01T12:43:02.817Z,26.37
2018-07-01T12:45:32.508Z,27.00
2018-07-01T12:48:01.236Z,28.00
2018-07-01T12:50:29.510Z,28.62
2018-07-01T12:52:58.028Z,26.91
2018-07-01T12:55:26.453Z,28.14
2018-07-01T12:57:54.850Z,28.49
2018-07-01T13:00:23.369Z,27.67
2018-07-01T13:02:51.779Z,27.30
2018-07-01T13:05:20.315Z,27.98
2018-07-01T13:07:48.885Z,27.25
2018-07-01T13:10:17.458Z,26.29
2018-07-01T13:12:45.844Z,26.55
2018-07-01T13:15:14.863Z,27.59
2018-07-01T13:17:43.146Z,26.98
2018-07-01T13:20:12.996Z,25.28
2018-07-01T13:22:41.546Z,26.06
2018-07-01T13:25:10.222Z,26.00
2018-07-01T13:27:39.192Z,26.27
2018-07-01T13:30:07.859Z,26.16
2018-07-01T13:32:36.119Z,26.18
2018-07-01T13:35:04.607Z,25.07
2018-07-01T13:37:33.082Z,24.36
2018-07-01T13:40:01.780Z,25.86
2018-07-01T13:42:30.003Z,25.53
2018-07-01T13:44:58.572Z,25.80
2018-07-01T13:47:27.015Z,24.96
2018-07-01T13:49:55.897Z,25.52
2018-07-01T13:52:28.377Z,25.92
2018-07-01T13:54:56.723Z,24.59
2018-07-01T13:57:25.298Z,24.73
2018-07-01T13:59:53.491Z,23.70
2018-07-01T14:02:22.147Z,23.78
2018-07-01T14:04:50.924Z,24.48
2018-07-01T14:07:19.321Z,25.59
2018-07-01T14:09:47.721Z,24.66
2018-07-01T14:12:16.570Z,24.33
2018-07-01T14:14:45.113Z,24.19
2018-07-01T14:17:13.479Z,24.37
2018-07-01T14:19:41.769Z,23.83
2018-07-01T14:22:10.388Z,23.48
2018-07-01T14:24:38.572Z,23.57
2018-07-01T14:27:07.057Z,23.78
2018-07-01T14:29:35.319Z,23.95
2018-07-01T14:32:03.666Z,24.44
2018-07-01T14:34:31.970Z,24.46
2018-07-01T14:37:00.239Z,24.99
2018-07-01T14:39:28.471Z,23.46
2018-07-01T14:41:56.892Z,22.95
2018-07-01T14:44:25.159Z,22.99
2018-07-01T14:46:53.696Z,23.93
2018-07-01T14:49:22.376Z,23.60
2018-07-01T14:51:51.451Z,23.71
2018-07-01T14:54:20.320Z,22.97
2018-07-01T14:56:48.994Z,22.95
2018-07-01T14:59:17.219Z,24.42
2018-07-01T15:01:45.666Z,24.28
2018-07-01T15:04:13.986Z,24.67
2018-07-01T15:06:43.030Z,23.71
2018-07-01T15:09:11.951Z,24.67
2018-07-01T15:11:41.367Z,24.30
2018-07-01T15:14:10.059Z,24.53
2018-07-01T15:16:38.512Z,24.05
2018-07-01T15:19:06.994Z,24.28
2018-07-01T15:21:35.357Z,25.79
2018-07-01T15:24:03.691Z,25.36
2018-07-01T15:26:32.101Z,24.33
2018-07-01T15:29:00.390Z,24.02
2018-07-01T15:31:28.774Z,25.03
2018-07-01T15:33:57.009Z,25.13
2018-07-01T15:36:25.480Z,25.01
2018-07-01T15:38:53.855Z,23.71
2018-07-01T15:41:22.482Z,22.77
2018-07-01T15:43:50.907Z,22.49
2018-07-01T15:46:19.350Z,24.19
2018-07-01T15:48:47.755Z,24.31
2018-07-01T15:51:15.969Z,23.81
2018-07-01T15:53:44.435Z,24.40
2018-07-01T15:56:12.718Z,23.94
2018-07-01T15:58:44.261Z,24.85
2018-07-01T16:01:12.775Z,24.41
2018-07-01T16:03:41.037Z,23.76
2018-07-01T16:06:09.328Z,23.39
2018-07-01T16:08:37.689Z,24.22
2018-07-01T16:11:06.130Z,24.33
2018-07-01T16:13:34.445Z,23.59
2018-07-01T16:16:02.696Z,23.11
2018-07-01T16:18:31.120Z,23.24
2018-07-01T16:20:59.304Z,24.37
2018-07-01T16:23:28.061Z,23.69
2018-07-01T16:26:01.951Z,24.86
2018-07-01T16:28:35.914Z,23.35
2018-07-01T16:31:04.168Z,24.23
2018-07-01T16:33:32.319Z,24.46
2018-07-01T16:36:00.537Z,24.55
2018-07-01T16:38:29.237Z,23.90
2018-07-01T16:40:57.473Z,25.41
2018-07-01T16:43:25.726Z,25.09
2018-07-01T16:45:54.113Z,26.45
2018-07-01T16:48:22.414Z,24.66
2018-07-01T16:50:51.644Z,25.80
2018-07-01T16:53:19.981Z,25.24
2018-07-01T16:55:48.283Z,25.36
2018-07-01T16:58:16.625Z,24.23
2018-07-01T17:00:44.903Z,24.12
2018-07-01T17:03:13.081Z,25.26
2018-07-01T17:05:41.747Z,25.35
2018-07-01T17:08:09.954Z,24.31
2018-07-01T17:10:38.196Z,25.01
2018-07-01T17:13:06.479Z,25.54
2018-07-01T17:15:34.642Z,26.30
2018-07-01T17:18:02.884Z,25.66
2018-07-01T17:20:31.570Z,24.93
2018-07-01T17:22:59.839Z,25.34
2018-07-01T17:25:28.097Z,25.70
2018-07-01T17:27:56.542Z,25.05
2018-07-01T17:30:25.166Z,24.96
2018-07-01T17:32:59.055Z,26.99
2018-07-01T17:35:27.327Z,24.80
2018-07-01T17:37:55.480Z,25.45
2018-07-01T17:40:23.850Z,25.23
2018-07-01T17:42:52.149Z,25.91
2018-07-01T17:45:29.578Z,25.46
2018-07-01T17:47:58.242Z,24.74
2018-07-01T17:50:26.562Z,26.20
2018-07-01T17:52:54.929Z,26.05
2018-07-01T17:55:23.641Z,27.91
2018-07-01T17:57:51.945Z,27.41
2018-07-01T18:00:20.438Z,26.91
2018-07-01T18:02:48.804Z,27.94
2018-07-01T18:05:17.295Z,27.96
2018-07-01T18:07:45.588Z,27.59
2018-07-01T18:10:13.883Z,27.52
2018-07-01T18:12:42.084Z,27.68
2018-07-01T18:15:10.450Z,27.70
2018-07-01T18:17:39.130Z,28.83
2018-07-01T18:20:07.551Z,28.54
2018-07-01T18:23:00.812Z,27.95
2018-07-01T18:25:09.839Z,28.38
2018-07-01T18:27:35.406Z,29.09
2018-07-01T18:30:01.353Z,29.27
2018-07-01T18:32:29.676Z,29.43
2018-07-01T18:34:58.182Z,29.24
2018-07-01T18:37:26.800Z,29.09
2018-07-01T18:39:55.843Z,29.50
2018-07-01T18:42:24.111Z,29.62
2018-07-01T18:44:52.866Z,29.41
2018-07-01T18:47:21.310Z,29.75
2018-07-01T18:49:51.335Z,30.07
2018-07-01T18:52:19.825Z,30.67
2018-07-01T18:54:48.611Z,29.24
2018-07-01T18:57:17.318Z,29.41
2018-07-01T18:59:45.693Z,30.03
2018-07-01T19:02:14.194Z,30.65
2018-07-01T19:04:43.122Z,31.03
2018-07-01T19:07:11.412Z,29.97
2018-07-01T19:09:39.895Z,30.52
2018-07-01T19:12:08.469Z,31.42
2018-07-01T19:14:36.901Z,30.80
2018-07-01T19:17:05.634Z,30.46
2018-07-01T19:19:34.034Z,30.69
2018-07-01T19:22:02.414Z,30.58
2018-07-01T19:24:30.959Z,30.45
2018-07-01T19:26:59.309Z,31.34
2018-07-01T19:29:29.810Z,30.13
2018-07-01T19:31:58.176Z,30.13
2018-07-01T19:34:26.582Z,30.32
2018-07-01T19:36:55.067Z,30.39
2018-07-01T19:39:23.557Z,30.11
2018-07-01T19:41:51.973Z,31.66
2018-07-01T19:44:20.375Z,30.05
2018-07-01T19:46:48.912Z,30.29
2018-07-01T19:49:17.331Z,29.79
2018-07-01T19:51:46.267Z,31.44
2018-07-01T19:54:14.932Z,29.97
2018-07-01T19:56:43.366Z,30.12
2018-07-01T19:59:11.825Z,30.26
2018-07-01T20:01:40.327Z,30.25
2018-07-01T20:04:08.934Z,29.86
2018-07-01T20:06:37.591Z,30.44
2018-07-01T20:09:08.089Z,30.52
2018-07-01T20:11:36.816Z,30.41
2018-07-01T20:14:06.722Z,29.80
2018-07-01T20:16:35.226Z,30.58
2018-07-01T20:19:04.170Z,30.49
2018-07-01T20:21:37.196Z,30.11
2018-07-01T20:24:06.191Z,29.47
2018-07-01T20:26:35.095Z,29.66
2018-07-01T20:29:04.026Z,30.16
2018-07-01T20:31:32.756Z,30.26
2018-07-01T20:34:01.331Z,29.50
2018-07-01T20:36:29.845Z,29.57
2018-07-01T20:39:03.099Z,30.00
2018-07-01T20:41:31.502Z,30.42
2018-07-01T20:43:59.964Z,30.85
2018-07-01T20:46:28.414Z,30.37
2018-07-01T20:48:56.800Z,30.44
2018-07-01T20:51:25.103Z,29.93
2018-07-01T20:53:53.374Z,30.43
2018-07-01T20:56:22.928Z,29.91
2018-07-01T20:58:53.376Z,30.57
2018-07-01T21:01:21.861Z,30.24
2018-07-01T21:03:50.929Z,30.21
2018-07-01T21:06:19.379Z,29.98
2018-07-01T21:08:47.949Z,29.80
2018-07-01T21:11:16.400Z,30.49
2018-07-01T21:13:44.819Z,30.76
2018-07-01T21:16:13.199Z,30.45
2018-07-01T21:18:41.565Z,30.64
2018-07-01T21:21:10.247Z,31.11
2018-07-01T21:23:40.420Z,30.18
2018-07-01T21:26:09.291Z,31.17
2018-07-01T21:28:37.851Z,31.08
2018-07-01T21:31:08.357Z,31.34
2018-07-01T21:33:37.660Z,30.51
2018-07-01T21:36:06.056Z,30.98
2018-07-01T21:38:34.374Z,30.85
2018-07-01T21:41:03.621Z,30.60
2018-07-01T21:43:32.409Z,31.71
2018-07-01T21:46:01.013Z,31.49
2018-07-01T21:48:29.910Z,30.95
2018-07-01T21:50:58.336Z,31.53
2018-07-01T21:53:26.960Z,31.45
2018-07-01T21:55:55.825Z,32.69
2018-07-01T21:58:24.224Z,32.02
2018-07-01T22:00:53.537Z,32.07
2018-07-01T22:03:22.088Z,32.05
2018-07-01T22:05:50.678Z,32.71
2018-07-01T22:08:19.179Z,32.21
2018-07-01T22:11:04.483Z,33.45
2018-07-01T22:14:52.499Z,32.69
2018-07-01T22:17:21.164Z,32.43
2018-07-01T22:19:49.618Z,32.64
2018-07-01T22:22:21.087Z,33.71
2018-07-01T22:24:49.567Z,33.34
2018-07-01T22:27:18.064Z,33.71
2018-07-01T22:29:54.499Z,33.73
2018-07-01T22:32:24.081Z,33.92
2018-07-01T22:34:53.480Z,33.59
2018-07-01T22:37:22.042Z,34.02
2018-07-01T22:39:51.227Z,33.56
2018-07-01T22:42:20.090Z,34.18
2018-07-01T22:44:49.614Z,34.35
2018-07-01T22:47:17.839Z,33.99
2018-07-01T22:49:46.253Z,34.78
2018-07-01T22:52:15.052Z,34.27
2018-07-01T22:54:43.842Z,34.83
2018-07-01T22:57:13.435Z,34.67
2018-07-01T22:59:42.072Z,34.85
2018-07-01T23:03:00.715Z,33.81
2018-07-01T23:05:30.510Z,34.74
2018-07-01T23:07:59.875Z,34.46
2018-07-01T23:10:29.528Z,34.53
2018-07-01T23:12:58.387Z,35.27
2018-07-01T23:15:26.662Z,34.85
2018-07-01T23:17:55.139Z,35.13
2018-07-01T23:20:24.057Z,35.01
2018-07-01T23:22:52.573Z,35.77
2018-07-01T23:25:21.242Z,35.72
2018-07-01T23:27:49.536Z,35.03
2018-07-01T23:30:17.779Z,35.81
2018-07-01T23:32:46.573Z,34.90
2018-07-01T23:35:14.986Z,36.24
2018-07-01T23:37:43.342Z,35.36
2018-07-01T23:40:11.863Z,35.94
2018-07-01T23:42:41.244Z,36.08
2018-07-01T23:45:12.515Z,35.84
2018-07-01T23:47:40.844Z,35.33
2018-07-01T23:50:09.139Z,35.88
2018-07-01T23:52:37.370Z,35.88
2018-07-01T23:55:06.717Z,35.85
2018-07-01T23:57:34.909Z,35.92
